RJAA Informação do Aeroporto

Informação da Pista
Runway 16L Length 7152 ft width 196 ft
Elevation 135 ft Threshold 190 ft Heading 150
Runway 34R Length 7152 ft Width 196 ft
Elevation 141 ft Threshold 190 ft Heading 330
Runway 16R Length 13123 ft width 196 ft
Elevation 130 ft Threshold 0 ft Heading 150
Runway 34L Length 13123 ft Width 196 ft
Elevation 139 ft Threshold 2460 ft Heading 330
Frequencias do Aeroporto
Tipo APP Nome TOKYO APP Frequência 124.4 MHZ
Tipo ATIS Nome ATIS Frequência 128.25 MHZ
Tipo CLD Nome CLNC DEL Frequência 121.9 MHZ
Tipo CLR Nome CLNC DEL Frequência 121.65 MHZ
Tipo DEP Nome TOKYO DEP Frequência 124.2 MHZ
Tipo GND Nome Frequência 121.85 MHZ
Tipo GND Nome GND Frequência 121.95 MHZ
Tipo RDR Nome TOKYO RDR Frequência 120.2 MHZ
Tipo RMP Nome RAMP Frequência 121.6 MHZ
Tipo RMP Nome RAMP Frequência 121.75 MHZ
Tipo TCA Nome TOKYO TCA Frequência 119.45 MHZ
Tipo TWR Nome TWR Frequência 118.2 MHZ
Tipo TWR Nome Frequência 118.35 MHZ
Navaids Aeroporto
Tipo VOR-DME Name Narita Frequência 117900 KHZ
Tipo VOR-DME Name Sakura Frequência 112700 KHZ
Tempo do Aeroporto & NOTAM
ADDS - METARS form results

(1527 UTC 07 December 2019)
Data provider http://aviationweather.gov/metar/data/
 
METAR text: RJAA 071500Z 29004KT 240V310 9999 FEW010 BKN180 BKN/// 04/03 Q1019 NOSIG RMK 1CU010 6AC180 A3009
Conditions at: RJAA (NARITA INTL , JP) observed 1500 UTC 07 December 2019
Temperature: 4.0°C (39°F)
Dewpoint: 3.0°C (37°F) [RH = 93%]
Pressure (altimeter): 30.09 inches Hg (1019.0 mb)
Winds: from the WNW (290 degrees) at 5 MPH (4 knots; 2.1 m/s)
Visibility: 6 or more miles (10+ km)
Ceiling: 18000 feet AGL
Clouds: few clouds at 1000 feet AGL
broken clouds at 18000 feet AGL
Weather: no significant weather observed at this time

METAR text: RJAA 071430Z 30004KT 270V330 9999 FEW010 BKN180 BKN/// 04/03 Q1019 NOSIG
Conditions at: RJAA (NARITA INTL , JP) observed 1430 UTC 07 December 2019
Temperature: 4.0°C (39°F)
Dewpoint: 3.0°C (37°F) [RH = 93%]
Pressure (altimeter): 30.09 inches Hg (1019.0 mb)
Winds: from the WNW (300 degrees) at 5 MPH (4 knots; 2.1 m/s)
Visibility: 6 or more miles (10+ km)
Ceiling: 18000 feet AGL
Clouds: few clouds at 1000 feet AGL
broken clouds at 18000 feet AGL
Weather: no significant weather observed at this time

Forecast for: RJAA (NARITA INTL , JP)
Text: TAF RJAA 071105Z 0712/0818 34005KT 9999 FEW030
Forecast period: 1200 UTC 07 December 2019 to 1800 UTC 08 December 2019
Forecast type: FROM: standard forecast or significant change
Winds: from the NNW (340 degrees) at 6 MPH (5 knots; 2.6 m/s)
Visibility: 6 or more miles 10+ km)
Ceiling: at least 12,000 feet AGL
Clouds: few clouds at 3000 feet AGL
Weather: no significant weather forecast for this period